createdAt,value
2022-09-12T00:01:53.956Z,61.43
2022-09-12T00:04:20.921Z,61.74
2022-09-12T00:06:48.048Z,61.59
2022-09-12T00:09:15.344Z,61.57
2022-09-12T00:11:45.564Z,62.15
2022-09-12T00:14:17.250Z,61.95
2022-09-12T00:16:44.585Z,61.75
2022-09-12T00:19:12.395Z,61.89
2022-09-12T00:21:40.684Z,61.50
2022-09-12T00:24:08.696Z,61.46
2022-09-12T00:26:36.119Z,61.90
2022-09-12T00:29:03.482Z,61.71
2022-09-12T00:31:30.610Z,62.27
2022-09-12T00:34:00.838Z,62.24
2022-09-12T00:36:29.684Z,61.74
2022-09-12T00:38:56.596Z,61.82
2022-09-12T00:41:31.070Z,61.99
2022-09-12T00:44:02.999Z,62.44
2022-09-12T00:46:42.454Z,62.10
2022-09-12T00:49:19.145Z,62.44
2022-09-12T00:52:20.706Z,62.06
2022-09-12T00:55:28.715Z,62.44
2022-09-12T00:58:08.788Z,62.90
2022-09-12T01:00:35.813Z,62.39
2022-09-12T01:03:07.921Z,62.55
2022-09-12T01:05:39.650Z,62.92
2022-09-12T01:08:07.360Z,62.93
2022-09-12T01:10:37.948Z,62.61
2022-09-12T01:13:09.919Z,62.57
2022-09-12T01:15:40.725Z,62.87
2022-09-12T01:18:16.223Z,62.61
2022-09-12T01:21:30.295Z,62.78
2022-09-12T01:24:36.534Z,62.57
2022-09-12T01:27:28.028Z,63.09
2022-09-12T01:30:32.756Z,63.43
2022-09-12T01:33:23.484Z,63.32
2022-09-12T01:36:11.882Z,62.93
2022-09-12T01:38:49.932Z,63.15
2022-09-12T01:41:50.300Z,62.77
2022-09-12T01:44:54.961Z,62.90
2022-09-12T01:47:32.249Z,62.60
2022-09-12T01:50:17.604Z,62.92
2022-09-12T01:52:59.867Z,62.74
2022-09-12T01:55:47.020Z,62.79
2022-09-12T01:58:26.288Z,62.78
2022-09-12T02:01:06.639Z,62.71
2022-09-12T02:04:02.007Z,63.02
2022-09-12T02:06:37.611Z,62.73
2022-09-12T02:09:12.578Z,63.04
2022-09-12T02:11:44.497Z,62.62
2022-09-12T02:14:17.894Z,62.63
2022-09-12T02:16:51.085Z,62.56
2022-09-12T02:19:23.432Z,62.65
2022-09-12T02:21:57.554Z,62.74
2022-09-12T02:24:32.306Z,62.67
2022-09-12T02:27:23.984Z,63.34
2022-09-12T02:29:51.267Z,62.73
2022-09-12T02:32:37.565Z,62.83
2022-09-12T02:35:10.695Z,63.19
2022-09-12T02:38:04.584Z,63.23
2022-09-12T02:40:32.918Z,63.10
2022-09-12T02:43:01.593Z,62.99
2022-09-12T02:45:29.499Z,62.94
2022-09-12T02:48:13.736Z,63.43
2022-09-12T02:50:42.035Z,62.87
2022-09-12T02:53:10.616Z,63.28
2022-09-12T02:55:40.331Z,63.10
2022-09-12T02:58:13.501Z,62.99
2022-09-12T03:01:07.831Z,63.27
2022-09-12T03:04:22.644Z,63.08
2022-09-12T03:07:31.750Z,63.33
2022-09-12T03:10:14.963Z,63.09
2022-09-12T03:13:04.137Z,63.26
2022-09-12T03:15:59.067Z,62.99
2022-09-12T03:18:44.085Z,63.25
2022-09-12T03:21:58.707Z,63.04
2022-09-12T03:24:38.104Z,63.51
2022-09-12T03:27:18.044Z,63.26
2022-09-12T03:29:47.897Z,63.48
2022-09-12T03:32:15.434Z,63.54
2022-09-12T03:34:42.309Z,63.24
2022-09-12T03:37:10.255Z,63.72
2022-09-12T03:39:37.217Z,63.65
2022-09-12T03:42:04.194Z,63.57
2022-09-12T03:44:31.074Z,63.92
2022-09-12T03:46:57.953Z,63.98
2022-09-12T03:49:24.849Z,63.83
2022-09-12T03:51:51.707Z,63.67
2022-09-12T03:54:18.588Z,64.18
2022-09-12T03:56:45.452Z,64.14
2022-09-12T03:59:12.322Z,64.08
2022-09-12T04:01:39.178Z,64.18
2022-09-12T04:04:06.074Z,64.29
2022-09-12T04:06:32.976Z,64.07
2022-09-12T04:08:59.855Z,63.99
2022-09-12T04:11:26.735Z,64.05
2022-09-12T04:13:54.204Z,64.34
2022-09-12T04:16:21.325Z,64.34
2022-09-12T04:18:48.418Z,64.13
2022-09-12T04:21:19.603Z,64.38
2022-09-12T04:23:46.490Z,64.31
2022-09-12T04:26:15.036Z,64.40
2022-09-12T04:28:41.950Z,64.22
2022-09-12T04:31:15.523Z,64.36
2022-09-12T04:33:42.536Z,63.99
2022-09-12T04:36:16.639Z,64.32
2022-09-12T04:38:45.900Z,64.33
2022-09-12T04:41:18.447Z,64.60
2022-09-12T04:43:47.046Z,64.69
2022-09-12T04:46:17.031Z,65.02
2022-09-12T04:48:44.097Z,65.18
2022-09-12T04:51:21.149Z,64.90
2022-09-12T04:53:53.878Z,65.24
2022-09-12T04:56:22.150Z,65.44
2022-09-12T04:58:49.098Z,65.38
2022-09-12T05:01:22.327Z,65.68
2022-09-12T05:03:50.639Z,65.71
2022-09-12T05:06:23.950Z,65.88
2022-09-12T05:08:52.358Z,65.94
2022-09-12T05:11:36.763Z,65.99
2022-09-12T05:14:13.881Z,66.04
2022-09-12T05:16:41.289Z,66.01
2022-09-12T05:19:09.290Z,66.15
2022-09-12T05:21:36.212Z,66.23
2022-09-12T05:24:05.386Z,66.45
2022-09-12T05:26:32.448Z,66.86
2022-09-12T05:28:59.339Z,67.08
2022-09-12T05:31:27.995Z,67.53
2022-09-12T05:33:56.133Z,68.07
2022-09-12T05:36:29.274Z,67.91
2022-09-12T05:38:57.012Z,68.33
2022-09-12T05:41:27.160Z,68.17
2022-09-12T05:43:57.003Z,67.95
2022-09-12T05:46:28.818Z,67.85
2022-09-12T05:48:57.062Z,67.73
2022-09-12T05:51:27.397Z,67.35
2022-09-12T05:53:57.671Z,67.36
2022-09-12T05:56:28.428Z,67.33
2022-09-12T05:59:04.735Z,67.55
2022-09-12T06:01:34.774Z,67.36
2022-09-12T06:04:05.317Z,67.03
2022-09-12T06:06:36.469Z,67.07
2022-09-12T06:09:05.363Z,66.83
2022-09-12T06:11:37.154Z,66.84
2022-09-12T06:14:04.991Z,67.04
2022-09-12T06:16:34.351Z,66.83
2022-09-12T06:19:06.673Z,67.00
2022-09-12T06:21:35.315Z,66.93
2022-09-12T06:24:02.623Z,66.39
2022-09-12T06:26:29.884Z,66.18
2022-09-12T06:28:59.911Z,66.06
2022-09-12T06:31:33.503Z,66.30
2022-09-12T06:34:03.457Z,66.35
2022-09-12T06:36:36.140Z,65.94
2022-09-12T06:39:16.451Z,66.32
2022-09-12T06:41:44.656Z,66.14
2022-09-12T06:44:18.303Z,65.55
2022-09-12T06:46:45.645Z,65.72
2022-09-12T06:49:12.939Z,65.81
2022-09-12T06:51:41.770Z,66.01
2022-09-12T06:54:09.940Z,66.33
2022-09-12T06:56:37.714Z,66.75
2022-09-12T06:59:04.573Z,66.49
2022-09-12T07:01:32.349Z,66.17
2022-09-12T07:04:02.991Z,66.16
2022-09-12T07:06:36.585Z,66.36
2022-09-12T07:09:06.443Z,66.46
2022-09-12T07:11:36.625Z,66.73
2022-09-12T07:14:05.686Z,66.41
2022-09-12T07:16:33.059Z,66.88
2022-09-12T07:19:02.202Z,66.89
2022-09-12T07:21:30.117Z,67.06
2022-09-12T07:23:58.117Z,67.00
2022-09-12T07:26:28.037Z,67.44
2022-09-12T07:29:12.912Z,67.26
2022-09-12T07:31:44.733Z,66.74
2022-09-12T07:34:11.636Z,66.53
2022-09-12T07:36:39.127Z,66.45
2022-09-12T07:39:06.325Z,66.68
2022-09-12T07:41:36.355Z,66.54
2022-09-12T07:44:06.585Z,66.14
2022-09-12T07:46:33.572Z,66.15
2022-09-12T07:49:01.324Z,65.64
2022-09-12T07:51:30.288Z,65.62
2022-09-12T07:53:57.595Z,65.24
2022-09-12T07:56:29.616Z,64.87
2022-09-12T07:58:57.106Z,64.85
2022-09-12T08:01:24.665Z,64.82
2022-09-12T08:03:57.256Z,64.69
2022-09-12T08:06:25.934Z,64.10
2022-09-12T08:08:55.764Z,63.69
2022-09-12T08:11:24.189Z,63.83
2022-09-12T08:13:56.156Z,63.54
2022-09-12T08:16:30.990Z,63.26
2022-09-12T08:18:58.403Z,63.78
2022-09-12T08:21:28.746Z,63.37
2022-09-12T08:23:59.073Z,62.73
2022-09-12T08:26:26.058Z,62.61
2022-09-12T08:28:53.617Z,62.50
2022-09-12T08:31:23.936Z,62.56
2022-09-12T08:33:51.808Z,62.52
2022-09-12T08:36:25.867Z,62.05
2022-09-12T08:38:59.796Z,61.63
2022-09-12T08:41:44.264Z,61.28
2022-09-12T08:44:24.482Z,61.49
2022-09-12T08:47:31.590Z,60.99
2022-09-12T08:50:10.402Z,61.15
2022-09-12T08:52:48.174Z,61.04
2022-09-12T08:55:59.232Z,61.24
2022-09-12T08:58:28.931Z,61.46
2022-09-12T09:01:24.417Z,61.22
2022-09-12T09:04:18.369Z,61.00
2022-09-12T09:07:07.753Z,60.31
2022-09-12T09:10:14.564Z,59.88
2022-09-12T09:12:57.243Z,59.72
2022-09-12T09:16:01.541Z,59.68
2022-09-12T09:18:32.297Z,60.20
2022-09-12T09:21:51.075Z,59.61
2022-09-12T09:24:22.152Z,59.43
2022-09-12T09:26:57.614Z,59.58
2022-09-12T09:29:31.247Z,59.32
2022-09-12T09:32:01.253Z,59.07
2022-09-12T09:34:31.730Z,58.36
2022-09-12T09:37:20.777Z,58.05
2022-09-12T09:40:19.897Z,57.46
2022-09-12T09:43:04.541Z,56.46
2022-09-12T09:45:31.636Z,56.10
2022-09-12T09:48:24.550Z,56.06
2022-09-12T09:50:51.863Z,55.79
2022-09-12T09:53:35.328Z,54.98
2022-09-12T09:56:33.238Z,54.33
2022-09-12T09:59:31.485Z,53.34
2022-09-12T10:02:14.772Z,53.82
2022-09-12T10:04:55.208Z,54.05
2022-09-12T10:07:23.123Z,53.91
2022-09-12T10:10:16.010Z,53.53
2022-09-12T10:12:43.538Z,53.74
2022-09-12T10:15:26.503Z,53.38
2022-09-12T10:17:55.660Z,53.64
2022-09-12T10:20:46.042Z,52.17
2022-09-12T10:23:37.640Z,52.71
2022-09-12T10:26:11.622Z,52.76
2022-09-12T10:28:39.440Z,52.45
2022-09-12T10:31:08.834Z,51.48
2022-09-12T10:33:44.488Z,51.40
2022-09-12T10:36:12.098Z,51.07
2022-09-12T10:38:39.075Z,50.49
2022-09-12T10:41:09.549Z,50.38
2022-09-12T10:43:39.618Z,50.73
2022-09-12T10:46:18.376Z,50.35
2022-09-12T10:48:50.177Z,49.77
2022-09-12T10:51:26.030Z,49.67
2022-09-12T10:54:05.830Z,49.42
2022-09-12T10:57:01.989Z,49.03
2022-09-12T11:00:15.352Z,48.91
2022-09-12T11:03:23.807Z,49.17
2022-09-12T11:06:00.545Z,48.73
2022-09-12T11:09:15.962Z,49.23
2022-09-12T11:12:08.728Z,47.88
2022-09-12T11:15:12.200Z,48.86
2022-09-12T11:17:52.011Z,48.28
2022-09-12T11:20:44.996Z,48.72
2022-09-12T11:23:17.600Z,49.16
2022-09-12T11:25:57.193Z,49.15
2022-09-12T11:28:35.742Z,48.49
2022-09-12T11:31:59.027Z,48.42
2022-09-12T11:34:53.593Z,49.17
2022-09-12T11:38:03.829Z,49.21
2022-09-12T11:40:56.612Z,48.51
2022-09-12T11:43:50.256Z,48.19
2022-09-12T11:46:36.351Z,47.48
2022-09-12T11:49:21.229Z,47.50
2022-09-12T11:51:59.278Z,47.82
2022-09-12T11:54:35.537Z,47.66
2022-09-12T11:57:48.536Z,48.16
2022-09-12T12:00:51.015Z,47.96
2022-09-12T12:03:39.520Z,47.45
2022-09-12T12:06:19.176Z,46.93
2022-09-12T12:08:47.681Z,46.74
2022-09-12T12:11:40.445Z,46.43
2022-09-12T12:14:23.189Z,46.58
2022-09-12T12:16:50.528Z,46.61
2022-09-12T12:19:17.292Z,46.35
2022-09-12T12:21:47.765Z,45.67
2022-09-12T12:24:26.705Z,46.27
2022-09-12T12:26:53.437Z,45.63
2022-09-12T12:29:20.173Z,45.89
2022-09-12T12:31:59.192Z,45.42
2022-09-12T12:34:37.264Z,44.47
2022-09-12T12:37:19.359Z,44.70
2022-09-12T12:39:47.987Z,44.57
2022-09-12T12:42:33.304Z,44.30
2022-09-12T12:45:09.010Z,44.26
2022-09-12T12:47:38.566Z,44.77
2022-09-12T12:50:11.122Z,44.14
2022-09-12T12:53:06.531Z,44.44
2022-09-12T12:55:47.603Z,44.45
2022-09-12T12:58:45.809Z,44.58
2022-09-12T13:01:19.575Z,43.89
2022-09-12T13:03:54.829Z,44.77
2022-09-12T13:07:03.506Z,44.06
2022-09-12T13:09:49.481Z,43.61
2022-09-12T13:12:24.895Z,44.25
2022-09-12T13:15:00.234Z,44.08
2022-09-12T13:17:43.543Z,44.22
2022-09-12T13:20:29.386Z,43.96
2022-09-12T13:22:57.503Z,44.38
2022-09-12T13:25:35.098Z,44.45
2022-09-12T13:28:10.691Z,44.63
2022-09-12T13:30:42.695Z,44.77
2022-09-12T13:33:24.337Z,44.54
2022-09-12T13:36:23.524Z,43.52
2022-09-12T13:39:15.911Z,44.54
2022-09-12T13:42:39.886Z,44.85
2022-09-12T13:45:13.589Z,44.32
2022-09-12T13:47:44.281Z,44.95
2022-09-12T13:50:28.395Z,44.46
2022-09-12T13:52:59.375Z,43.64
2022-09-12T13:55:33.027Z,44.15
2022-09-12T13:58:03.822Z,43.27
2022-09-12T14:00:33.218Z,42.96
2022-09-12T14:03:19.397Z,43.01
2022-09-12T14:05:55.773Z,43.03
2022-09-12T14:08:23.904Z,42.83
2022-09-12T14:10:51.285Z,43.06
2022-09-12T14:13:26.296Z,43.00
2022-09-12T14:15:56.074Z,43.50
2022-09-12T14:18:29.613Z,43.13
2022-09-12T14:21:02.036Z,42.70
2022-09-12T14:23:33.181Z,42.62
2022-09-12T14:26:06.537Z,41.95
2022-09-12T14:28:34.329Z,41.93
2022-09-12T14:31:06.902Z,42.07
2022-09-12T14:33:49.681Z,41.88
2022-09-12T14:36:34.003Z,42.44
2022-09-12T14:39:05.418Z,41.76
2022-09-12T14:41:38.997Z,42.83
2022-09-12T14:44:17.782Z,42.24
2022-09-12T14:46:44.937Z,42.04
2022-09-12T14:49:28.855Z,42.18
2022-09-12T14:52:02.451Z,42.09
2022-09-12T14:54:32.948Z,42.30
2022-09-12T14:57:07.588Z,42.66
2022-09-12T14:59:39.868Z,42.98
2022-09-12T15:02:24.608Z,42.84
2022-09-12T15:05:06.660Z,42.65
2022-09-12T15:07:39.675Z,43.13
2022-09-12T15:10:35.149Z,43.02
2022-09-12T15:13:11.934Z,42.95
2022-09-12T15:15:44.776Z,42.73
2022-09-12T15:18:12.250Z,42.54
2022-09-12T15:20:41.274Z,42.23
2022-09-12T15:23:16.116Z,42.80
2022-09-12T15:25:42.989Z,42.88
2022-09-12T15:28:18.453Z,42.75
2022-09-12T15:30:47.739Z,42.47
2022-09-12T15:33:14.776Z,42.23
2022-09-12T15:35:41.731Z,42.03
2022-09-12T15:38:08.631Z,42.31
2022-09-12T15:40:35.586Z,42.37
2022-09-12T15:43:03.113Z,42.61
2022-09-12T15:45:33.416Z,41.36
2022-09-12T15:48:02.796Z,41.43
2022-09-12T15:50:30.210Z,42.41
2022-09-12T15:52:57.633Z,42.24
2022-09-12T15:55:33.602Z,43.25
2022-09-12T15:58:04.865Z,42.82
2022-09-12T16:00:33.325Z,43.40
2022-09-12T16:03:01.012Z,43.33
2022-09-12T16:05:27.992Z,42.62
2022-09-12T16:07:55.566Z,42.56
2022-09-12T16:10:30.352Z,42.24
2022-09-12T16:12:57.851Z,42.86
2022-09-12T16:15:26.044Z,42.57
2022-09-12T16:17:53.649Z,42.86
2022-09-12T16:20:22.148Z,42.82
2022-09-12T16:22:49.325Z,43.76
2022-09-12T16:25:17.236Z,43.58
2022-09-12T16:27:44.793Z,44.14
2022-09-12T16:30:13.094Z,43.70
2022-09-12T16:32:40.063Z,44.38
2022-09-12T16:35:07.711Z,44.23
2022-09-12T16:37:34.645Z,44.84
2022-09-12T16:40:04.157Z,44.52
2022-09-12T16:42:31.626Z,44.27
2022-09-12T16:44:58.487Z,44.91
2022-09-12T16:47:25.347Z,44.71
2022-09-12T16:49:52.313Z,45.11
2022-09-12T16:52:19.419Z,45.07
2022-09-12T16:54:46.346Z,45.15
2022-09-12T16:57:13.427Z,45.10
2022-09-12T16:59:40.382Z,45.63
2022-09-12T17:02:08.294Z,45.34
2022-09-12T17:04:35.221Z,45.52
2022-09-12T17:07:02.156Z,45.12
2022-09-12T17:09:29.423Z,45.30
2022-09-12T17:11:57.197Z,45.30
2022-09-12T17:14:24.763Z,45.33
2022-09-12T17:16:52.292Z,45.84
2022-09-12T17:19:26.716Z,45.52
2022-09-12T17:21:54.298Z,45.74
2022-09-12T17:24:21.822Z,45.77
2022-09-12T17:26:49.334Z,45.96
2022-09-12T17:29:16.988Z,46.00
2022-09-12T17:31:45.063Z,46.59
2022-09-12T17:34:16.229Z,46.14
2022-09-12T17:36:44.718Z,46.65
2022-09-12T17:39:13.576Z,46.84
2022-09-12T17:41:42.599Z,47.15
2022-09-12T17:44:12.800Z,47.03
2022-09-12T17:46:40.300Z,46.92
2022-09-12T17:49:12.143Z,47.57
2022-09-12T17:51:40.578Z,47.47
2022-09-12T17:54:12.812Z,47.64
2022-09-12T17:56:40.307Z,47.70
2022-09-12T17:59:10.066Z,48.04
2022-09-12T18:01:55.210Z,47.99
2022-09-12T18:04:22.156Z,48.20
2022-09-12T18:06:49.775Z,48.52
2022-09-12T18:09:23.290Z,49.01
2022-09-12T18:11:51.505Z,49.06
2022-09-12T18:14:18.732Z,49.11
2022-09-12T18:16:46.749Z,49.10
2022-09-12T18:19:14.176Z,49.55
2022-09-12T18:21:41.224Z,49.46
2022-09-12T18:24:09.758Z,49.84
2022-09-12T18:26:37.108Z,50.09
2022-09-12T18:29:03.988Z,50.18
2022-09-12T18:31:31.368Z,50.50
2022-09-12T18:34:02.669Z,50.97
2022-09-12T18:36:30.813Z,51.03
2022-09-12T18:38:59.489Z,50.82
2022-09-12T18:41:28.802Z,51.27
2022-09-12T18:43:58.106Z,51.32
2022-09-12T18:46:26.097Z,51.71
2022-09-12T18:48:55.464Z,51.74
2022-09-12T18:51:25.794Z,51.90
2022-09-12T18:53:56.271Z,52.39
2022-09-12T18:56:32.781Z,52.71
2022-09-12T18:59:02.015Z,52.98
2022-09-12T19:01:37.489Z,53.24
2022-09-12T19:04:06.468Z,53.25
2022-09-12T19:06:37.284Z,53.20
2022-09-12T19:09:08.089Z,53.05
2022-09-12T19:11:40.759Z,53.23
2022-09-12T19:14:08.465Z,53.29
2022-09-12T19:16:35.725Z,53.19
2022-09-12T19:19:03.060Z,53.39
2022-09-12T19:21:31.828Z,53.28
2022-09-12T19:24:05.986Z,53.46
2022-09-12T19:26:33.692Z,53.38
2022-09-12T19:29:02.804Z,53.69
2022-09-12T19:31:30.399Z,53.86
2022-09-12T19:34:07.831Z,54.12
2022-09-12T19:36:50.674Z,54.12
2022-09-12T19:39:19.764Z,54.34
2022-09-12T19:41:47.441Z,54.26
2022-09-12T19:44:14.711Z,54.25
2022-09-12T19:46:41.926Z,54.72
2022-09-12T19:49:11.693Z,54.41
2022-09-12T19:51:38.787Z,54.90
2022-09-12T19:54:06.155Z,55.33
2022-09-12T19:56:33.015Z,55.58
2022-09-12T19:59:00.143Z,55.73
2022-09-12T20:01:28.510Z,56.27
2022-09-12T20:03:58.843Z,56.50
2022-09-12T20:06:26.740Z,56.23
2022-09-12T20:08:54.499Z,55.89
2022-09-12T20:11:23.609Z,56.19
2022-09-12T20:13:50.799Z,56.00
2022-09-12T20:16:22.924Z,55.83
2022-09-12T20:18:55.832Z,56.00
2022-09-12T20:21:25.783Z,56.36
2022-09-12T20:23:52.974Z,56.12
2022-09-12T20:26:20.474Z,56.11
2022-09-12T20:28:47.518Z,56.03
2022-09-12T20:31:16.755Z,56.54
2022-09-12T20:33:47.564Z,57.03
2022-09-12T20:36:19.835Z,57.25
2022-09-12T20:38:52.620Z,57.47
2022-09-12T20:41:21.271Z,57.72
2022-09-12T20:43:56.804Z,58.22
2022-09-12T20:46:26.328Z,58.13
2022-09-12T20:48:53.716Z,58.52
2022-09-12T20:51:22.108Z,58.74
2022-09-12T20:53:54.387Z,58.54
2022-09-12T20:56:22.747Z,58.44
2022-09-12T20:58:50.305Z,58.05
2022-09-12T21:01:17.375Z,57.96
2022-09-12T21:03:44.785Z,57.88
2022-09-12T21:06:13.501Z,58.29
2022-09-12T21:08:40.736Z,58.31
2022-09-12T21:11:07.819Z,58.53
2022-09-12T21:13:35.313Z,58.68
2022-09-12T21:16:08.361Z,58.92
2022-09-12T21:18:36.260Z,59.17
2022-09-12T21:21:04.332Z,59.09
2022-09-12T21:23:31.627Z,58.76
2022-09-12T21:26:02.269Z,58.86
2022-09-12T21:28:29.584Z,58.81
2022-09-12T21:30:56.546Z,59.03
2022-09-12T21:33:23.870Z,59.20
2022-09-12T21:35:51.198Z,59.16
2022-09-12T21:38:19.265Z,58.53
2022-09-12T21:40:47.056Z,58.51
2022-09-12T21:43:14.553Z,58.55
2022-09-12T21:45:41.418Z,58.88
2022-09-12T21:48:08.286Z,59.17
2022-09-12T21:50:35.527Z,58.84
2022-09-12T21:53:02.408Z,59.21
2022-09-12T21:55:29.355Z,58.99
2022-09-12T21:57:56.548Z,58.79
2022-09-12T22:00:24.130Z,58.86
2022-09-12T22:02:51.002Z,58.54
2022-09-12T22:05:20.329Z,58.50
2022-09-12T22:07:47.195Z,58.77
2022-09-12T22:10:14.074Z,58.62
2022-09-12T22:12:45.965Z,58.54
2022-09-12T22:15:38.970Z,59.18
2022-09-12T22:18:01.196Z,58.62
2022-09-12T22:20:28.183Z,59.12
2022-09-12T22:23:13.858Z,59.15
2022-09-12T22:25:40.896Z,58.94
2022-09-12T22:28:07.791Z,59.23
2022-09-12T22:30:35.352Z,59.21
2022-09-12T22:33:02.215Z,59.34
2022-09-12T22:35:29.099Z,59.09
2022-09-12T22:37:55.974Z,59.54
2022-09-12T22:40:22.901Z,59.19
2022-09-12T22:42:52.874Z,59.69
2022-09-12T22:45:20.038Z,59.71
2022-09-12T22:47:47.112Z,59.78
2022-09-12T22:50:14.197Z,59.25
2022-09-12T22:52:41.580Z,59.16
2022-09-12T22:55:09.096Z,59.36
2022-09-12T22:57:36.003Z,59.06
2022-09-12T23:00:07.881Z,59.05
2022-09-12T23:02:34.923Z,59.70
2022-09-12T23:05:02.592Z,59.11
2022-09-12T23:07:30.413Z,59.28
2022-09-12T23:09:57.282Z,59.34
2022-09-12T23:12:24.160Z,59.44
2022-09-12T23:14:51.038Z,59.21
2022-09-12T23:17:17.928Z,59.23
2022-09-12T23:19:45.470Z,58.81
2022-09-12T23:22:12.351Z,59.36
2022-09-12T23:24:39.211Z,59.19
2022-09-12T23:27:06.201Z,58.96
2022-09-12T23:29:35.220Z,58.82
2022-09-12T23:32:04.129Z,58.83
2022-09-12T23:34:31.048Z,58.74
2022-09-12T23:36:57.924Z,59.23
2022-09-12T23:39:24.806Z,58.67
2022-09-12T23:41:52.043Z,58.46
2022-09-12T23:44:18.916Z,58.32
2022-09-12T23:46:45.791Z,58.75
2022-09-12T23:49:12.685Z,58.23
2022-09-12T23:51:39.651Z,58.77
2022-09-12T23:54:06.598Z,58.80
2022-09-12T23:56:33.485Z,58.60
2022-09-12T23:59:00.343Z,58.46
